createdAt,value
2023-02-02T00:02:05.227Z,9.40
2023-02-02T00:04:34.559Z,9.50
2023-02-02T00:07:03.027Z,9.60
2023-02-02T00:09:31.651Z,9.30
2023-02-02T00:11:59.905Z,9.30
2023-02-02T00:14:26.785Z,9.00
2023-02-02T00:16:57.181Z,8.90
2023-02-02T00:19:26.816Z,8.90
2023-02-02T00:21:54.827Z,9.40
2023-02-02T00:24:22.255Z,9.30
2023-02-02T00:26:52.648Z,9.20
2023-02-02T00:29:25.825Z,9.50
2023-02-02T00:31:53.318Z,10.20
2023-02-02T00:34:20.896Z,10.10
2023-02-02T00:36:49.204Z,9.20
2023-02-02T00:39:22.938Z,9.10
2023-02-02T00:41:49.657Z,9.10
2023-02-02T00:44:35.059Z,9.60
2023-02-02T00:47:02.319Z,10.40
2023-02-02T00:49:29.536Z,9.40
2023-02-02T00:51:56.263Z,9.40
2023-02-02T00:54:23.007Z,9.40
2023-02-02T00:56:49.726Z,10.00
2023-02-02T00:59:16.497Z,10.20
2023-02-02T01:01:43.170Z,10.30
2023-02-02T01:04:09.901Z,10.70
2023-02-02T01:06:36.561Z,10.40
2023-02-02T01:09:04.027Z,10.10
2023-02-02T01:11:31.055Z,11.10
2023-02-02T01:13:58.113Z,9.90
2023-02-02T01:16:25.000Z,10.20
2023-02-02T01:18:52.691Z,9.70
2023-02-02T01:21:19.745Z,9.40
2023-02-02T01:23:46.864Z,9.80
2023-02-02T01:26:14.593Z,10.20
2023-02-02T01:28:41.640Z,9.20
2023-02-02T01:31:11.160Z,9.10
2023-02-02T01:33:39.295Z,9.10
2023-02-02T01:36:09.883Z,8.60
2023-02-02T01:38:37.029Z,9.10
2023-02-02T01:41:04.646Z,8.90
2023-02-02T01:43:46.586Z,8.90
2023-02-02T01:46:14.279Z,9.20
2023-02-02T01:48:46.231Z,9.50
2023-02-02T01:51:21.266Z,9.30
2023-02-02T01:53:50.966Z,8.90
2023-02-02T01:56:41.371Z,9.20
2023-02-02T01:59:09.544Z,8.90
2023-02-02T02:01:36.329Z,9.50
2023-02-02T02:04:03.185Z,10.10
2023-02-02T02:06:30.110Z,9.00
2023-02-02T02:09:05.009Z,8.60
2023-02-02T02:11:33.541Z,8.70
2023-02-02T02:14:21.006Z,8.50
2023-02-02T02:16:59.900Z,8.50
2023-02-02T02:20:03.948Z,9.10
2023-02-02T02:23:22.082Z,9.40
2023-02-02T02:26:35.888Z,9.40
2023-02-02T02:29:23.874Z,9.20
2023-02-02T02:32:09.572Z,9.70
2023-02-02T02:34:55.284Z,10.00
2023-02-02T02:38:03.053Z,9.10
2023-02-02T02:40:36.241Z,8.70
2023-02-02T02:43:18.636Z,10.60
2023-02-02T02:45:45.454Z,11.20
2023-02-02T02:48:12.154Z,10.40
2023-02-02T02:50:39.195Z,10.30
2023-02-02T02:53:09.981Z,9.90
2023-02-02T02:55:48.819Z,10.20
2023-02-02T02:58:58.697Z,9.80
2023-02-02T03:01:36.792Z,10.20
2023-02-02T03:04:09.773Z,10.60
2023-02-02T03:06:51.169Z,10.80
2023-02-02T03:09:25.635Z,10.10
2023-02-02T03:11:52.456Z,9.50
2023-02-02T03:14:19.089Z,9.70
2023-02-02T03:16:45.801Z,9.80
2023-02-02T03:19:12.697Z,10.90
2023-02-02T03:21:39.338Z,10.60
2023-02-02T03:24:06.405Z,9.50
2023-02-02T03:26:33.154Z,9.90
2023-02-02T03:29:00.861Z,10.00
2023-02-02T03:31:28.656Z,10.10
2023-02-02T03:33:56.499Z,9.70
2023-02-02T03:36:23.559Z,9.10
2023-02-02T03:38:50.309Z,10.30
2023-02-02T03:41:16.987Z,11.60
2023-02-02T03:43:43.746Z,11.00
2023-02-02T03:46:10.844Z,9.70
2023-02-02T03:48:38.686Z,10.00
2023-02-02T03:51:11.565Z,11.00
2023-02-02T03:53:39.189Z,11.30
2023-02-02T03:56:06.523Z,11.20
2023-02-02T03:58:33.299Z,10.90
2023-02-02T04:01:07.582Z,10.20
2023-02-02T04:03:34.622Z,10.60
2023-02-02T04:06:01.633Z,10.80
2023-02-02T04:08:28.498Z,11.20
2023-02-02T04:10:55.177Z,11.00
2023-02-02T04:13:21.951Z,10.90
2023-02-02T04:15:48.780Z,9.70
2023-02-02T04:18:15.437Z,10.30
2023-02-02T04:20:42.135Z,10.60
2023-02-02T04:23:08.758Z,9.90
2023-02-02T04:25:35.458Z,10.80
2023-02-02T04:28:02.174Z,10.60
2023-02-02T04:30:28.824Z,10.50
2023-02-02T04:32:55.564Z,9.90
2023-02-02T04:35:22.455Z,10.70
2023-02-02T04:37:49.229Z,10.10
2023-02-02T04:40:16.135Z,11.10
2023-02-02T04:42:42.890Z,10.20
2023-02-02T04:45:09.990Z,10.20
2023-02-02T04:47:36.765Z,10.40
2023-02-02T04:50:03.737Z,11.00
2023-02-02T04:52:31.479Z,10.40
2023-02-02T04:54:58.228Z,10.50
2023-02-02T04:57:24.956Z,11.40
2023-02-02T04:59:51.793Z,11.00
2023-02-02T05:02:19.535Z,10.30
2023-02-02T05:04:46.671Z,11.20
2023-02-02T05:07:13.480Z,12.20
2023-02-02T05:09:40.209Z,11.00
2023-02-02T05:12:06.966Z,10.90
2023-02-02T05:14:33.693Z,10.60
2023-02-02T05:17:00.458Z,10.00
2023-02-02T05:19:27.202Z,9.80
2023-02-02T05:21:54.713Z,10.00
2023-02-02T05:24:21.375Z,10.40
2023-02-02T05:26:48.108Z,11.10
2023-02-02T05:29:14.822Z,10.60
2023-02-02T05:31:41.488Z,10.40
2023-02-02T05:34:11.416Z,10.40
2023-02-02T05:36:38.131Z,9.70
2023-02-02T05:39:05.610Z,10.80
2023-02-02T05:41:32.505Z,11.00
2023-02-02T05:44:00.006Z,11.90
2023-02-02T05:46:26.793Z,11.20
2023-02-02T05:48:53.675Z,10.80
2023-02-02T05:51:31.023Z,10.80
2023-02-02T05:53:58.850Z,11.40
2023-02-02T05:56:27.448Z,10.50
2023-02-02T05:58:54.114Z,10.90
2023-02-02T06:01:21.610Z,10.60
2023-02-02T06:03:49.705Z,10.80
2023-02-02T06:06:16.500Z,11.50
2023-02-02T06:08:43.276Z,11.70
2023-02-02T06:11:11.634Z,10.90
2023-02-02T06:13:38.578Z,10.40
2023-02-02T06:16:05.731Z,10.70
2023-02-02T06:18:34.998Z,10.70
2023-02-02T06:21:03.960Z,10.60
2023-02-02T06:23:30.650Z,10.80
2023-02-02T06:25:57.411Z,11.10
2023-02-02T06:28:24.349Z,10.90
2023-02-02T06:30:51.149Z,10.70
2023-02-02T06:33:17.941Z,10.60
2023-02-02T06:35:44.665Z,10.80
2023-02-02T06:38:11.439Z,10.60
2023-02-02T06:40:38.261Z,10.80
2023-02-02T06:43:05.038Z,11.20
2023-02-02T06:45:31.794Z,11.10
2023-02-02T06:48:11.039Z,11.50
2023-02-02T06:50:38.454Z,11.20
2023-02-02T06:53:06.149Z,11.20
2023-02-02T06:55:32.885Z,11.50
2023-02-02T06:58:00.842Z,11.20
2023-02-02T07:00:28.997Z,10.90
2023-02-02T07:02:56.415Z,10.80
2023-02-02T07:05:24.356Z,11.30
2023-02-02T07:07:51.533Z,11.10
2023-02-02T07:11:10.992Z,12.10
2023-02-02T07:13:06.999Z,12.10
2023-02-02T07:15:35.341Z,12.20
2023-02-02T07:18:01.986Z,11.80
2023-02-02T07:20:28.851Z,12.20
2023-02-02T07:22:55.832Z,12.00
2023-02-02T07:25:23.720Z,11.50
2023-02-02T07:27:54.650Z,11.80
2023-02-02T07:30:22.129Z,11.40
2023-02-02T07:32:50.018Z,11.50
2023-02-02T07:35:17.508Z,11.70
2023-02-02T07:37:44.324Z,11.50
2023-02-02T07:40:11.856Z,11.30
2023-02-02T07:42:38.871Z,11.60
2023-02-02T07:45:27.268Z,11.70
2023-02-02T07:48:00.961Z,12.30
2023-02-02T07:50:31.361Z,10.50
2023-02-02T07:52:59.855Z,10.40
2023-02-02T07:55:26.903Z,10.40
2023-02-02T08:00:39.560Z,11.50
2023-02-02T08:03:06.261Z,11.50
2023-02-02T08:05:34.721Z,10.50
2023-02-02T08:08:01.397Z,10.90
2023-02-02T08:10:28.074Z,10.80
2023-02-02T08:12:55.789Z,11.10
2023-02-02T08:15:22.689Z,10.70
2023-02-02T08:17:50.058Z,11.90
2023-02-02T08:20:16.747Z,11.90
2023-02-02T08:22:43.476Z,10.60
2023-02-02T08:25:10.276Z,10.20
2023-02-02T08:27:37.927Z,10.50
2023-02-02T08:30:05.271Z,11.20
2023-02-02T08:32:31.951Z,12.50
2023-02-02T08:34:58.576Z,11.80
2023-02-02T08:37:25.289Z,11.40
2023-02-02T08:39:51.939Z,10.80
2023-02-02T08:42:18.666Z,10.50
2023-02-02T08:46:02.036Z,10.60
2023-02-02T08:47:32.072Z,10.70
2023-02-02T08:49:58.921Z,10.30
2023-02-02T08:52:26.002Z,10.90
2023-02-02T08:54:52.673Z,10.60
2023-02-02T08:57:19.436Z,11.30
2023-02-02T08:59:46.101Z,11.60
2023-02-02T09:02:16.759Z,10.70
2023-02-02T09:04:45.469Z,11.90
2023-02-02T09:07:12.366Z,11.50
2023-02-02T09:09:39.098Z,11.20
2023-02-02T09:12:05.961Z,10.80
2023-02-02T09:14:32.767Z,11.70
2023-02-02T09:16:59.506Z,11.80
2023-02-02T09:19:26.284Z,11.50
2023-02-02T09:21:53.046Z,10.90
2023-02-02T09:24:19.767Z,11.50
2023-02-02T09:26:46.532Z,11.10
2023-02-02T09:29:16.418Z,11.50
2023-02-02T09:31:43.674Z,11.40
2023-02-02T09:34:13.536Z,10.90
2023-02-02T09:36:41.328Z,10.90
2023-02-02T09:39:10.497Z,11.10
2023-02-02T09:41:37.512Z,11.00
2023-02-02T09:44:09.798Z,11.20
2023-02-02T09:46:55.073Z,12.30
2023-02-02T09:49:46.084Z,11.50
2023-02-02T09:52:17.436Z,10.90
2023-02-02T09:54:48.403Z,11.30
2023-02-02T09:57:36.880Z,12.00
2023-02-02T10:00:05.742Z,11.40
2023-02-02T10:02:39.642Z,10.90
2023-02-02T10:05:18.356Z,10.70
2023-02-02T10:07:52.964Z,10.80
2023-02-02T10:10:50.946Z,11.40
2023-02-02T10:13:27.028Z,11.70
2023-02-02T10:16:05.370Z,11.90
2023-02-02T10:18:48.386Z,11.70
2023-02-02T10:21:46.833Z,11.80
2023-02-02T10:24:23.134Z,11.50
2023-02-02T10:26:53.634Z,11.40
2023-02-02T10:29:23.672Z,11.20
2023-02-02T10:32:22.560Z,11.50
2023-02-02T10:35:21.859Z,11.80
2023-02-02T10:38:09.794Z,11.60
2023-02-02T10:40:52.373Z,11.30
2023-02-02T10:43:46.548Z,11.30
2023-02-02T10:46:33.642Z,11.70
2023-02-02T10:49:12.698Z,11.60
2023-02-02T10:51:41.194Z,11.20
2023-02-02T10:54:54.806Z,11.10
2023-02-02T10:57:57.871Z,11.70
2023-02-02T11:00:34.778Z,11.50
2023-02-02T11:03:04.666Z,11.40
2023-02-02T11:05:50.488Z,11.00
2023-02-02T11:08:25.311Z,11.90
2023-02-02T11:10:54.564Z,11.50
2023-02-02T11:13:33.636Z,11.70
2023-02-02T11:16:15.394Z,12.20
2023-02-02T11:18:44.316Z,13.00
2023-02-02T11:21:24.221Z,11.90
2023-02-02T11:23:56.174Z,11.40
2023-02-02T11:26:25.071Z,11.00
2023-02-02T11:28:55.559Z,11.40
2023-02-02T11:31:31.759Z,11.60
2023-02-02T11:34:25.823Z,11.10
2023-02-02T11:37:20.073Z,11.10
2023-02-02T11:39:46.866Z,11.20
2023-02-02T11:42:16.147Z,11.70
2023-02-02T11:44:55.773Z,12.20
2023-02-02T11:47:32.561Z,12.40
2023-02-02T11:50:01.865Z,11.70
2023-02-02T11:52:32.592Z,11.30
2023-02-02T11:55:14.668Z,12.10
2023-02-02T11:58:01.319Z,11.20
2023-02-02T12:00:29.805Z,11.40
2023-02-02T12:02:58.210Z,11.70
2023-02-02T12:05:36.454Z,11.90
2023-02-02T12:08:03.251Z,12.00
2023-02-02T12:10:38.356Z,12.10
2023-02-02T12:13:37.473Z,11.90
2023-02-02T12:16:53.754Z,11.60
2023-02-02T12:19:29.533Z,11.70
2023-02-02T12:22:18.242Z,11.90
2023-02-02T12:24:55.592Z,11.50
2023-02-02T12:27:39.572Z,11.70
2023-02-02T12:30:32.138Z,11.80
2023-02-02T12:33:13.318Z,11.10
2023-02-02T12:36:01.632Z,12.30
2023-02-02T12:39:01.818Z,12.70
2023-02-02T12:42:06.272Z,11.70
2023-02-02T12:44:40.938Z,11.20
2023-02-02T12:47:38.799Z,10.90
2023-02-02T12:50:24.564Z,12.00
2023-02-02T12:53:17.263Z,11.20
2023-02-02T12:55:50.130Z,10.90
2023-02-02T12:58:49.459Z,11.20
2023-02-02T13:01:35.003Z,10.80
2023-02-02T13:07:58.319Z,11.70
2023-02-02T13:10:35.694Z,11.70
2023-02-02T13:13:06.817Z,12.00
2023-02-02T13:15:37.549Z,12.40
2023-02-02T13:18:13.861Z,11.40
2023-02-02T13:20:45.341Z,12.60
2023-02-02T13:23:28.438Z,11.50
2023-02-02T13:26:04.605Z,11.70
2023-02-02T13:29:09.371Z,11.70
2023-02-02T13:31:45.648Z,12.30
2023-02-02T13:34:30.683Z,13.10
2023-02-02T13:37:03.722Z,12.00
2023-02-02T13:39:38.429Z,12.50
2023-02-02T13:42:16.774Z,11.50
2023-02-02T13:45:07.757Z,12.20
2023-02-02T13:47:44.516Z,12.20
2023-02-02T13:50:15.439Z,11.30
2023-02-02T13:53:04.891Z,11.90
2023-02-02T13:56:00.197Z,12.20
2023-02-02T13:58:37.903Z,12.00
2023-02-02T14:01:11.042Z,12.40
2023-02-02T14:03:43.823Z,13.60
2023-02-02T14:06:12.744Z,12.10
2023-02-02T14:08:54.085Z,11.30
2023-02-02T14:11:37.761Z,11.70
2023-02-02T14:14:32.136Z,11.40
2023-02-02T14:17:06.943Z,11.30
2023-02-02T14:19:33.545Z,11.20
2023-02-02T14:22:12.048Z,11.80
2023-02-02T14:24:45.141Z,11.60
2023-02-02T14:27:11.859Z,12.20
2023-02-02T14:29:46.576Z,12.70
2023-02-02T14:32:29.060Z,11.80
2023-02-02T14:35:20.411Z,12.60
2023-02-02T14:38:23.407Z,13.10
2023-02-02T14:41:10.933Z,13.70
2023-02-02T14:43:50.953Z,12.10
2023-02-02T14:46:34.858Z,13.10
2023-02-02T14:49:01.683Z,12.30
2023-02-02T14:51:31.104Z,12.20
2023-02-02T14:54:06.376Z,13.10
2023-02-02T14:56:45.444Z,13.00
2023-02-02T14:59:24.803Z,12.30
2023-02-02T15:02:21.830Z,12.00
2023-02-02T15:04:49.480Z,11.70
2023-02-02T15:07:51.872Z,11.70
2023-02-02T15:10:48.137Z,11.90
2023-02-02T15:13:16.868Z,11.60
2023-02-02T15:15:45.702Z,12.50
2023-02-02T15:18:18.433Z,11.50
2023-02-02T15:20:56.222Z,12.00
2023-02-02T15:23:42.287Z,12.00
2023-02-02T15:26:17.653Z,10.80
2023-02-02T15:29:13.547Z,12.80
2023-02-02T15:31:43.987Z,11.40
2023-02-02T15:34:22.428Z,12.00
2023-02-02T15:36:54.093Z,12.00
2023-02-02T15:39:42.530Z,12.90
2023-02-02T15:42:41.263Z,12.80
2023-02-02T15:45:27.992Z,12.30
2023-02-02T15:47:57.365Z,11.90
2023-02-02T15:50:24.131Z,12.80
2023-02-02T15:52:52.533Z,12.80
2023-02-02T15:55:32.352Z,13.40
2023-02-02T15:57:59.653Z,11.80
2023-02-02T16:00:32.853Z,11.10
2023-02-02T16:03:18.696Z,12.50
2023-02-02T16:05:52.045Z,12.00
2023-02-02T16:08:27.466Z,11.50
2023-02-02T16:11:23.807Z,11.60
2023-02-02T16:14:01.783Z,12.50
2023-02-02T16:16:39.446Z,11.60
2023-02-02T16:19:09.090Z,13.40
2023-02-02T16:21:42.727Z,13.20
2023-02-02T16:24:20.262Z,12.50
2023-02-02T16:26:47.620Z,12.10
2023-02-02T16:29:17.379Z,12.60
2023-02-02T16:31:48.237Z,12.50
2023-02-02T16:34:17.223Z,13.10
2023-02-02T16:36:44.154Z,12.80
2023-02-02T16:39:23.422Z,12.00
2023-02-02T16:41:50.710Z,13.00
2023-02-02T16:44:43.722Z,12.30
2023-02-02T16:47:25.605Z,12.00
2023-02-02T16:50:07.615Z,12.50
2023-02-02T16:53:05.012Z,12.40
2023-02-02T16:55:49.551Z,12.40
2023-02-02T16:58:20.603Z,12.00
2023-02-02T17:01:15.970Z,11.90
2023-02-02T17:03:53.564Z,12.70
2023-02-02T17:06:42.056Z,11.90
2023-02-02T17:09:17.245Z,12.30
2023-02-02T17:12:35.748Z,13.20
2023-02-02T17:15:16.987Z,12.50
2023-02-02T17:17:45.351Z,12.20
2023-02-02T17:20:13.070Z,11.60
2023-02-02T17:22:43.568Z,11.00
2023-02-02T17:25:14.872Z,11.50
2023-02-02T17:27:41.555Z,11.30
2023-02-02T17:30:14.707Z,11.10
2023-02-02T17:32:41.592Z,11.30
2023-02-02T17:35:24.739Z,11.40
2023-02-02T17:37:52.709Z,10.60
2023-02-02T17:40:22.022Z,11.10
2023-02-02T17:42:52.239Z,11.60
2023-02-02T17:45:33.544Z,11.30
2023-02-02T17:48:01.041Z,11.50
2023-02-02T17:50:29.531Z,11.50
2023-02-02T17:52:56.918Z,11.30
2023-02-02T17:55:25.730Z,11.10
2023-02-02T17:57:53.793Z,11.60
2023-02-02T18:00:23.269Z,11.70
2023-02-02T18:02:56.718Z,11.40
2023-02-02T18:05:23.947Z,11.30
2023-02-02T18:07:50.768Z,11.10
2023-02-02T18:10:19.304Z,10.70
2023-02-02T18:12:46.055Z,11.60
2023-02-02T18:15:14.648Z,11.60
2023-02-02T18:17:42.250Z,10.90
2023-02-02T18:20:11.839Z,11.40
2023-02-02T18:22:38.662Z,10.50
2023-02-02T18:25:06.181Z,10.90
2023-02-02T18:27:32.830Z,11.10
2023-02-02T18:29:59.439Z,11.60
2023-02-02T18:32:26.293Z,12.00
2023-02-02T18:34:55.691Z,12.50
2023-02-02T18:37:25.649Z,11.80
2023-02-02T18:39:54.004Z,11.20
2023-02-02T18:42:21.057Z,11.40
2023-02-02T18:44:47.729Z,11.60
2023-02-02T18:47:14.434Z,11.10
2023-02-02T18:49:41.170Z,11.40
2023-02-02T18:52:07.888Z,11.90
2023-02-02T18:54:35.732Z,12.30
2023-02-02T18:57:02.511Z,13.20
2023-02-02T18:59:29.612Z,13.60
2023-02-02T19:01:56.269Z,13.40
2023-02-02T19:04:23.186Z,13.20
2023-02-02T19:07:09.505Z,13.10
2023-02-02T19:09:36.156Z,13.70
2023-02-02T19:12:09.833Z,13.50
2023-02-02T19:14:38.486Z,13.60
2023-02-02T19:17:15.248Z,13.40
2023-02-02T19:19:42.990Z,14.00
2023-02-02T19:22:18.719Z,14.00
2023-02-02T19:24:45.577Z,13.30
2023-02-02T19:27:18.569Z,13.60
2023-02-02T19:29:46.696Z,13.50
2023-02-02T19:32:23.397Z,13.40
2023-02-02T19:34:53.367Z,13.70
2023-02-02T19:37:23.908Z,13.70
2023-02-02T19:39:53.499Z,14.20
2023-02-02T19:42:20.179Z,13.60
2023-02-02T19:44:46.863Z,13.50
2023-02-02T19:47:28.045Z,13.40
2023-02-02T19:49:56.812Z,14.00
2023-02-02T19:52:25.575Z,14.40
2023-02-02T19:54:53.784Z,13.50
2023-02-02T19:57:33.165Z,13.40
2023-02-02T20:00:11.431Z,13.30
2023-02-02T20:02:43.872Z,13.50
2023-02-02T20:05:29.371Z,13.90
2023-02-02T20:08:05.625Z,13.30
2023-02-02T20:10:43.556Z,13.50
2023-02-02T20:13:18.525Z,14.50
2023-02-02T20:15:45.667Z,14.40
2023-02-02T20:18:26.853Z,13.30
2023-02-02T20:20:57.474Z,13.80
2023-02-02T20:23:29.641Z,13.90
2023-02-02T20:25:58.415Z,14.20
2023-02-02T20:28:44.860Z,14.10
2023-02-02T20:31:15.607Z,13.90
2023-02-02T20:33:48.013Z,13.70
2023-02-02T20:36:30.925Z,14.30
2023-02-02T20:39:06.692Z,14.50
2023-02-02T20:41:33.650Z,14.30
2023-02-02T20:44:00.261Z,14.20
2023-02-02T20:46:27.014Z,13.60
2023-02-02T20:48:53.744Z,13.60
2023-02-02T20:51:20.530Z,13.90
2023-02-02T20:53:47.433Z,13.60
2023-02-02T20:56:14.172Z,14.40
2023-02-02T20:58:40.826Z,13.70
2023-02-02T21:01:08.054Z,14.40
2023-02-02T21:03:34.777Z,14.00
2023-02-02T21:06:01.475Z,13.90
2023-02-02T21:08:28.153Z,13.70
2023-02-02T21:10:54.791Z,13.80
2023-02-02T21:13:21.596Z,13.60
2023-02-02T21:15:48.403Z,13.90
2023-02-02T21:18:15.285Z,13.20
2023-02-02T21:20:41.976Z,13.00
2023-02-02T21:23:10.140Z,13.50
2023-02-02T21:25:36.931Z,13.80
2023-02-02T21:28:03.974Z,13.10
2023-02-02T21:30:31.060Z,13.30
2023-02-02T21:32:58.933Z,14.20
2023-02-02T21:35:26.680Z,13.70
2023-02-02T21:37:57.362Z,13.60
2023-02-02T21:40:29.655Z,12.90
2023-02-02T21:42:59.381Z,12.60
2023-02-02T21:45:37.133Z,12.20
2023-02-02T21:48:29.524Z,13.40
2023-02-02T21:50:56.860Z,13.00
2023-02-02T21:53:25.729Z,12.80
2023-02-02T21:55:59.554Z,12.20
2023-02-02T21:58:33.612Z,12.40
2023-02-02T22:01:12.343Z,12.50
2023-02-02T22:03:39.384Z,13.50
2023-02-02T22:06:20.901Z,12.80
2023-02-02T22:08:49.001Z,12.70
2023-02-02T22:11:29.757Z,13.30
2023-02-02T22:14:16.850Z,13.60
2023-02-02T22:16:56.986Z,12.80
2023-02-02T22:19:34.861Z,13.00
2023-02-02T22:22:13.161Z,12.60
2023-02-02T22:24:41.892Z,13.70
2023-02-02T22:27:18.675Z,12.70
2023-02-02T22:29:45.549Z,12.60
2023-02-02T22:32:12.291Z,13.10
2023-02-02T22:34:39.062Z,12.70
2023-02-02T22:37:05.844Z,12.80
2023-02-02T22:39:32.608Z,12.50
2023-02-02T22:41:59.341Z,12.70
2023-02-02T22:44:25.984Z,14.10
2023-02-02T22:46:52.641Z,13.20
2023-02-02T22:49:19.383Z,12.60
2023-02-02T22:51:45.965Z,13.20
2023-02-02T22:54:13.642Z,14.20
2023-02-02T22:56:40.245Z,13.50
2023-02-02T22:59:06.887Z,13.30
2023-02-02T23:01:33.496Z,13.60
2023-02-02T23:04:00.301Z,13.60
2023-02-02T23:06:26.951Z,13.30
2023-02-02T23:08:53.570Z,12.50
2023-02-02T23:11:20.289Z,13.40
2023-02-02T23:13:46.954Z,13.10
2023-02-02T23:16:13.709Z,13.60
2023-02-02T23:18:40.430Z,12.70
2023-02-02T23:21:07.098Z,12.80
2023-02-02T23:23:33.750Z,12.90
2023-02-02T23:26:00.481Z,12.60
2023-02-02T23:28:27.233Z,12.60
2023-02-02T23:30:54.637Z,12.50
2023-02-02T23:33:21.382Z,12.70
2023-02-02T23:35:48.018Z,13.10
2023-02-02T23:38:14.672Z,14.20
2023-02-02T23:40:41.359Z,14.10
2023-02-02T23:43:08.460Z,13.30
2023-02-02T23:45:35.449Z,13.30
2023-02-02T23:48:02.481Z,13.60
2023-02-02T23:50:29.173Z,13.60
2023-02-02T23:52:55.987Z,13.40
2023-02-02T23:55:22.666Z,13.20
2023-02-02T23:57:49.429Z,13.40
